sensor_id;sensor_type;location;lat;lon;timestamp;pressure;altitude;pressure_sealevel;temperature;humidity
49645;BME280;36494;50.730;-1.932;2023-03-25T00:01:00;99644.19;;;8.11;100.00
49645;BME280;36494;50.730;-1.932;2023-03-25T00:03:25;99643.94;;;8.07;100.00
49645;BME280;36494;50.730;-1.932;2023-03-25T00:05:50;99649.04;;;8.05;100.00
49645;BME280;36494;50.730;-1.932;2023-03-25T00:08:15;99658.11;;;8.07;100.00
49645;BME280;36494;50.730;-1.932;2023-03-25T00:10:41;99658.99;;;8.01;100.00
49645;BME280;36494;50.730;-1.932;2023-03-25T00:13:06;99655.02;;;8.05;100.00
49645;BME280;36494;50.730;-1.932;2023-03-25T00:15:32;99660.42;;;8.03;100.00
49645;BME280;36494;50.730;-1.932;2023-03-25T00:17:57;99659.59;;;8.00;100.00
49645;BME280;36494;50.730;-1.932;2023-03-25T00:20:22;99662.44;;;7.98;100.00
49645;BME280;36494;50.730;-1.932;2023-03-25T00:22:47;99675.58;;;8.04;100.00
49645;BME280;36494;50.730;-1.932;2023-03-25T00:25:14;99680.99;;;8.00;100.00
49645;BME280;36494;50.730;-1.932;2023-03-25T00:27:38;99683.20;;;8.02;100.00
49645;BME280;36494;50.730;-1.932;2023-03-25T00:30:04;99689.14;;;8.07;100.00
49645;BME280;36494;50.730;-1.932;2023-03-25T00:32:29;99692.13;;;8.01;100.00
49645;BME280;36494;50.730;-1.932;2023-03-25T00:34:54;99697.72;;;7.97;100.00
49645;BME280;36494;50.730;-1.932;2023-03-25T00:37:20;99695.24;;;8.00;100.00
49645;BME280;36494;50.730;-1.932;2023-03-25T00:39:45;99692.74;;;8.01;100.00
49645;BME280;36494;50.730;-1.932;2023-03-25T00:42:11;99688.95;;;7.95;100.00
49645;BME280;36494;50.730;-1.932;2023-03-25T00:44:36;99693.92;;;7.94;100.00
49645;BME280;36494;50.730;-1.932;2023-03-25T00:47:01;99694.16;;;7.99;100.00
49645;BME280;36494;50.730;-1.932;2023-03-25T00:49:26;99684.80;;;7.98;100.00
49645;BME280;36494;50.730;-1.932;2023-03-25T00:51:51;99699.60;;;8.00;100.00
49645;BME280;36494;50.730;-1.932;2023-03-25T00:54:17;99695.00;;;7.94;100.00
49645;BME280;36494;50.730;-1.932;2023-03-25T00:56:42;99707.91;;;7.87;100.00
49645;BME280;36494;50.730;-1.932;2023-03-25T00:59:07;99697.66;;;7.92;100.00
49645;BME280;36494;50.730;-1.932;2023-03-25T01:01:33;99701.58;;;7.92;100.00
49645;BME280;36494;50.730;-1.932;2023-03-25T01:03:58;99706.26;;;7.91;100.00
49645;BME280;36494;50.730;-1.932;2023-03-25T01:06:25;99715.05;;;7.85;100.00
49645;BME280;36494;50.730;-1.932;2023-03-25T01:08:51;99703.30;;;7.85;100.00
49645;BME280;36494;50.730;-1.932;2023-03-25T01:11:18;99710.63;;;7.84;100.00
49645;BME280;36494;50.730;-1.932;2023-03-25T01:13:39;99712.34;;;7.83;100.00
49645;BME280;36494;50.730;-1.932;2023-03-25T01:16:06;99712.05;;;7.81;100.00
49645;BME280;36494;50.730;-1.932;2023-03-25T01:18:30;99712.09;;;7.83;100.00
49645;BME280;36494;50.730;-1.932;2023-03-25T01:20:55;99710.04;;;7.84;100.00
49645;BME280;36494;50.730;-1.932;2023-03-25T01:23:20;99714.46;;;7.80;100.00
49645;BME280;36494;50.730;-1.932;2023-03-25T01:25:46;99711.77;;;7.80;100.00
49645;BME280;36494;50.730;-1.932;2023-03-25T01:28:11;99711.85;;;7.78;100.00
49645;BME280;36494;50.730;-1.932;2023-03-25T01:30:36;99718.26;;;7.81;100.00
49645;BME280;36494;50.730;-1.932;2023-03-25T01:33:02;99715.71;;;7.83;100.00
49645;BME280;36494;50.730;-1.932;2023-03-25T01:35:27;99713.67;;;7.79;100.00
49645;BME280;36494;50.730;-1.932;2023-03-25T01:37:52;99719.25;;;7.82;100.00
49645;BME280;36494;50.730;-1.932;2023-03-25T01:40:20;99722.54;;;7.83;100.00
49645;BME280;36494;50.730;-1.932;2023-03-25T01:42:43;99727.34;;;7.81;100.00
49645;BME280;36494;50.730;-1.932;2023-03-25T01:45:18;99728.45;;;7.81;100.00
49645;BME280;36494;50.730;-1.932;2023-03-25T01:47:34;99718.15;;;7.74;100.00
49645;BME280;36494;50.730;-1.932;2023-03-25T01:49:59;99714.49;;;7.78;100.00
49645;BME280;36494;50.730;-1.932;2023-03-25T01:52:26;99722.64;;;7.80;100.00
49645;BME280;36494;50.730;-1.932;2023-03-25T01:54:52;99729.56;;;7.75;100.00
49645;BME280;36494;50.730;-1.932;2023-03-25T01:57:19;99727.83;;;7.78;100.00
49645;BME280;36494;50.730;-1.932;2023-03-25T01:59:41;99727.50;;;7.75;100.00
49645;BME280;36494;50.730;-1.932;2023-03-25T02:02:08;99721.44;;;7.73;100.00
49645;BME280;36494;50.730;-1.932;2023-03-25T02:04:36;99732.28;;;7.77;100.00
49645;BME280;36494;50.730;-1.932;2023-03-25T02:06:56;99731.06;;;7.76;100.00
49645;BME280;36494;50.730;-1.932;2023-03-25T02:09:23;99730.81;;;7.76;100.00
49645;BME280;36494;50.730;-1.932;2023-03-25T02:11:47;99729.03;;;7.73;100.00
49645;BME280;36494;50.730;-1.932;2023-03-25T02:14:14;99726.52;;;7.77;100.00
49645;BME280;36494;50.730;-1.932;2023-03-25T02:16:45;99737.28;;;7.76;100.00
49645;BME280;36494;50.730;-1.932;2023-03-25T02:19:19;99738.96;;;7.82;100.00
49645;BME280;36494;50.730;-1.932;2023-03-25T02:21:44;99742.50;;;7.80;100.00
49645;BME280;36494;50.730;-1.932;2023-03-25T02:28:48;99752.38;;;7.84;100.00
49645;BME280;36494;50.730;-1.932;2023-03-25T02:31:20;99750.41;;;7.84;100.00
49645;BME280;36494;50.730;-1.932;2023-03-25T02:33:42;99749.64;;;7.86;100.00
49645;BME280;36494;50.730;-1.932;2023-03-25T02:36:19;99757.43;;;7.86;100.00
49645;BME280;36494;50.730;-1.932;2023-03-25T02:38:32;99755.81;;;7.86;100.00
49645;BME280;36494;50.730;-1.932;2023-03-25T02:40:54;99761.58;;;7.88;100.00
49645;BME280;36494;50.730;-1.932;2023-03-25T02:43:19;99758.82;;;7.89;100.00
49645;BME280;36494;50.730;-1.932;2023-03-25T02:45:44;99761.43;;;7.88;100.00
49645;BME280;36494;50.730;-1.932;2023-03-25T02:48:11;99759.73;;;7.88;100.00
49645;BME280;36494;50.730;-1.932;2023-03-25T02:50:34;99760.75;;;7.89;100.00
49645;BME280;36494;50.730;-1.932;2023-03-25T02:52:59;99754.36;;;7.87;100.00
49645;BME280;36494;50.730;-1.932;2023-03-25T02:55:24;99763.69;;;7.89;100.00
49645;BME280;36494;50.730;-1.932;2023-03-25T02:57:50;99759.77;;;7.90;100.00
49645;BME280;36494;50.730;-1.932;2023-03-25T03:00:16;99754.98;;;7.90;100.00
49645;BME280;36494;50.730;-1.932;2023-03-25T03:02:40;99765.52;;;7.89;100.00
49645;BME280;36494;50.730;-1.932;2023-03-25T03:07:32;99769.21;;;7.89;100.00
49645;BME280;36494;50.730;-1.932;2023-03-25T03:10:02;99770.68;;;7.90;100.00
49645;BME280;36494;50.730;-1.932;2023-03-25T03:12:32;99771.39;;;7.93;100.00
49645;BME280;36494;50.730;-1.932;2023-03-25T03:14:55;99772.51;;;7.95;100.00
49645;BME280;36494;50.730;-1.932;2023-03-25T03:17:16;99779.20;;;7.99;100.00
49645;BME280;36494;50.730;-1.932;2023-03-25T03:19:40;99767.41;;;7.98;100.00
49645;BME280;36494;50.730;-1.932;2023-03-25T03:22:11;99767.48;;;8.04;100.00
49645;BME280;36494;50.730;-1.932;2023-03-25T03:24:30;99775.03;;;8.08;100.00
49645;BME280;36494;50.730;-1.932;2023-03-25T03:26:56;99764.92;;;8.08;100.00
49645;BME280;36494;50.730;-1.932;2023-03-25T03:29:22;99774.15;;;8.08;100.00
49645;BME280;36494;50.730;-1.932;2023-03-25T03:31:47;99777.14;;;8.14;100.00
49645;BME280;36494;50.730;-1.932;2023-03-25T03:34:12;99775.34;;;8.14;100.00
49645;BME280;36494;50.730;-1.932;2023-03-25T03:36:37;99779.19;;;8.13;100.00
49645;BME280;36494;50.730;-1.932;2023-03-25T03:39:03;99782.60;;;8.11;100.00
49645;BME280;36494;50.730;-1.932;2023-03-25T03:41:26;99779.07;;;8.11;100.00
49645;BME280;36494;50.730;-1.932;2023-03-25T03:43:53;99783.18;;;8.15;100.00
49645;BME280;36494;50.730;-1.932;2023-03-25T03:46:17;99785.55;;;8.13;100.00
49645;BME280;36494;50.730;-1.932;2023-03-25T03:48:43;99784.26;;;8.09;100.00
49645;BME280;36494;50.730;-1.932;2023-03-25T03:51:10;99791.85;;;8.07;100.00
49645;BME280;36494;50.730;-1.932;2023-03-25T03:53:34;99804.89;;;8.09;100.00
49645;BME280;36494;50.730;-1.932;2023-03-25T03:56:01;99792.95;;;8.07;100.00
49645;BME280;36494;50.730;-1.932;2023-03-25T03:58:25;99792.24;;;8.10;100.00
49645;BME280;36494;50.730;-1.932;2023-03-25T04:00:50;99795.65;;;8.06;100.00
49645;BME280;36494;50.730;-1.932;2023-03-25T04:03:14;99789.55;;;8.10;100.00
49645;BME280;36494;50.730;-1.932;2023-03-25T04:05:39;99794.92;;;8.13;100.00
49645;BME280;36494;50.730;-1.932;2023-03-25T04:08:06;99800.53;;;8.07;100.00
49645;BME280;36494;50.730;-1.932;2023-03-25T04:10:32;99803.22;;;8.13;100.00
49645;BME280;36494;50.730;-1.932;2023-03-25T04:12:55;99798.03;;;8.11;100.00
49645;BME280;36494;50.730;-1.932;2023-03-25T04:15:20;99798.84;;;8.08;100.00
49645;BME280;36494;50.730;-1.932;2023-03-25T04:17:45;99809.29;;;8.11;100.00
49645;BME280;36494;50.730;-1.932;2023-03-25T04:20:14;99794.98;;;8.07;100.00
49645;BME280;36494;50.730;-1.932;2023-03-25T04:22:35;99801.57;;;8.09;100.00
49645;BME280;36494;50.730;-1.932;2023-03-25T04:25:00;99811.26;;;8.06;100.00
49645;BME280;36494;50.730;-1.932;2023-03-25T04:27:26;99810.04;;;8.06;100.00
49645;BME280;36494;50.730;-1.932;2023-03-25T04:29:51;99811.44;;;8.07;100.00
49645;BME280;36494;50.730;-1.932;2023-03-25T04:32:17;99816.06;;;8.12;100.00
49645;BME280;36494;50.730;-1.932;2023-03-25T04:34:42;99815.80;;;8.07;100.00
49645;BME280;36494;50.730;-1.932;2023-03-25T04:37:08;99822.35;;;8.06;100.00
49645;BME280;36494;50.730;-1.932;2023-03-25T04:39:33;99823.47;;;8.06;100.00
49645;BME280;36494;50.730;-1.932;2023-03-25T04:41:59;99816.04;;;8.11;100.00
49645;BME280;36494;50.730;-1.932;2023-03-25T04:44:24;99806.59;;;8.06;100.00
49645;BME280;36494;50.730;-1.932;2023-03-25T04:46:49;99813.84;;;8.05;100.00
49645;BME280;36494;50.730;-1.932;2023-03-25T04:49:18;99816.98;;;8.08;100.00
49645;BME280;36494;50.730;-1.932;2023-03-25T04:51:40;99821.45;;;8.09;100.00
49645;BME280;36494;50.730;-1.932;2023-03-25T04:54:05;99822.30;;;8.06;100.00
49645;BME280;36494;50.730;-1.932;2023-03-25T04:56:30;99833.37;;;8.08;100.00
49645;BME280;36494;50.730;-1.932;2023-03-25T04:58:55;99829.74;;;8.10;100.00
49645;BME280;36494;50.730;-1.932;2023-03-25T05:01:23;99840.62;;;8.11;100.00
49645;BME280;36494;50.730;-1.932;2023-03-25T05:03:46;99837.29;;;8.06;100.00
49645;BME280;36494;50.730;-1.932;2023-03-25T05:06:11;99837.45;;;8.10;100.00
49645;BME280;36494;50.730;-1.932;2023-03-25T05:08:36;99837.61;;;8.09;100.00
49645;BME280;36494;50.730;-1.932;2023-03-25T05:11:02;99839.56;;;8.09;100.00
49645;BME280;36494;50.730;-1.932;2023-03-25T05:13:27;99847.48;;;8.12;100.00
49645;BME280;36494;50.730;-1.932;2023-03-25T05:15:53;99844.06;;;8.08;100.00
49645;BME280;36494;50.730;-1.932;2023-03-25T05:18:18;99846.93;;;8.11;100.00
49645;BME280;36494;50.730;-1.932;2023-03-25T05:20:45;99844.13;;;8.12;100.00
49645;BME280;36494;50.730;-1.932;2023-03-25T05:23:11;99850.59;;;8.10;100.00
49645;BME280;36494;50.730;-1.932;2023-03-25T05:25:34;99860.06;;;8.09;100.00
49645;BME280;36494;50.730;-1.932;2023-03-25T05:28:00;99859.82;;;8.09;100.00
49645;BME280;36494;50.730;-1.932;2023-03-25T05:30:25;99859.30;;;8.09;100.00
49645;BME280;36494;50.730;-1.932;2023-03-25T05:32:50;99861.32;;;8.08;100.00
49645;BME280;36494;50.730;-1.932;2023-03-25T05:35:15;99863.94;;;8.09;100.00
49645;BME280;36494;50.730;-1.932;2023-03-25T05:37:40;99864.03;;;8.05;100.00
49645;BME280;36494;50.730;-1.932;2023-03-25T05:40:07;99863.98;;;8.07;100.00
49645;BME280;36494;50.730;-1.932;2023-03-25T05:42:31;99866.13;;;8.05;100.00
49645;BME280;36494;50.730;-1.932;2023-03-25T05:44:56;99874.16;;;8.06;100.00
49645;BME280;36494;50.730;-1.932;2023-03-25T05:47:23;99876.99;;;8.04;100.00
49645;BME280;36494;50.730;-1.932;2023-03-25T05:49:47;99886.27;;;8.01;100.00
49645;BME280;36494;50.730;-1.932;2023-03-25T05:52:12;99892.52;;;8.01;100.00
49645;BME280;36494;50.730;-1.932;2023-03-25T05:54:37;99892.56;;;7.99;100.00
49645;BME280;36494;50.730;-1.932;2023-03-25T05:57:02;99893.77;;;7.98;100.00
49645;BME280;36494;50.730;-1.932;2023-03-25T05:59:28;99889.58;;;7.96;100.00
49645;BME280;36494;50.730;-1.932;2023-03-25T06:01:53;99889.03;;;7.94;100.00
49645;BME280;36494;50.730;-1.932;2023-03-25T06:04:19;99896.85;;;7.96;100.00
49645;BME280;36494;50.730;-1.932;2023-03-25T06:06:44;99902.26;;;7.96;100.00
49645;BME280;36494;50.730;-1.932;2023-03-25T06:09:09;99904.02;;;7.99;100.00
49645;BME280;36494;50.730;-1.932;2023-03-25T06:11:35;99901.62;;;8.05;100.00
49645;BME280;36494;50.730;-1.932;2023-03-25T06:14:00;99901.66;;;8.00;100.00
49645;BME280;36494;50.730;-1.932;2023-03-25T06:16:25;99905.20;;;7.99;100.00
49645;BME280;36494;50.730;-1.932;2023-03-25T06:18:50;99905.35;;;7.99;100.00
49645;BME280;36494;50.730;-1.932;2023-03-25T06:21:17;99907.06;;;8.01;100.00
49645;BME280;36494;50.730;-1.932;2023-03-25T06:23:41;99911.14;;;8.02;100.00
49645;BME280;36494;50.730;-1.932;2023-03-25T06:26:06;99916.10;;;8.06;100.00
49645;BME280;36494;50.730;-1.932;2023-03-25T06:28:32;99918.95;;;8.03;100.00
49645;BME280;36494;50.730;-1.932;2023-03-25T06:30:57;99923.95;;;8.06;100.00
49645;BME280;36494;50.730;-1.932;2023-03-25T06:33:22;99927.51;;;8.13;100.00
49645;BME280;36494;50.730;-1.932;2023-03-25T06:35:47;99925.16;;;8.09;100.00
49645;BME280;36494;50.730;-1.932;2023-03-25T06:38:13;99929.49;;;8.09;100.00
49645;BME280;36494;50.730;-1.932;2023-03-25T06:40:39;99933.80;;;8.14;100.00
49645;BME280;36494;50.730;-1.932;2023-03-25T06:43:05;99934.41;;;8.13;100.00
49645;BME280;36494;50.730;-1.932;2023-03-25T06:45:30;99939.25;;;8.20;100.00
49645;BME280;36494;50.730;-1.932;2023-03-25T06:47:55;99941.76;;;8.21;100.00
49645;BME280;36494;50.730;-1.932;2023-03-25T06:50:20;99949.28;;;8.24;100.00
49645;BME280;36494;50.730;-1.932;2023-03-25T06:52:45;99952.80;;;8.27;100.00
49645;BME280;36494;50.730;-1.932;2023-03-25T06:55:10;99948.43;;;8.26;100.00
49645;BME280;36494;50.730;-1.932;2023-03-25T06:57:36;99952.11;;;8.29;100.00
49645;BME280;36494;50.730;-1.932;2023-03-25T07:00:02;99959.28;;;8.26;100.00
49645;BME280;36494;50.730;-1.932;2023-03-25T07:02:26;99954.75;;;8.34;100.00
49645;BME280;36494;50.730;-1.932;2023-03-25T07:04:52;99960.81;;;8.33;100.00
49645;BME280;36494;50.730;-1.932;2023-03-25T07:07:17;99960.68;;;8.38;100.00
49645;BME280;36494;50.730;-1.932;2023-03-25T07:09:42;99963.79;;;8.38;100.00
49645;BME280;36494;50.730;-1.932;2023-03-25T07:12:08;99963.77;;;8.42;100.00
49645;BME280;36494;50.730;-1.932;2023-03-25T07:14:33;99968.50;;;8.44;100.00
49645;BME280;36494;50.730;-1.932;2023-03-25T07:16:59;99969.63;;;8.49;100.00
49645;BME280;36494;50.730;-1.932;2023-03-25T07:19:24;99974.80;;;8.49;100.00
49645;BME280;36494;50.730;-1.932;2023-03-25T07:21:50;99983.49;;;8.50;100.00
49645;BME280;36494;50.730;-1.932;2023-03-25T07:24:15;99989.10;;;8.53;100.00
49645;BME280;36494;50.730;-1.932;2023-03-25T07:26:40;99991.70;;;8.58;100.00
49645;BME280;36494;50.730;-1.932;2023-03-25T07:29:05;99993.25;;;8.62;100.00
49645;BME280;36494;50.730;-1.932;2023-03-25T07:31:30;100000.57;;;8.63;100.00
49645;BME280;36494;50.730;-1.932;2023-03-25T07:33:56;100004.09;;;8.66;100.00
49645;BME280;36494;50.730;-1.932;2023-03-25T07:36:21;100007.48;;;8.71;100.00
49645;BME280;36494;50.730;-1.932;2023-03-25T07:38:47;100011.88;;;8.75;100.00
49645;BME280;36494;50.730;-1.932;2023-03-25T07:41:12;100011.06;;;8.79;100.00
49645;BME280;36494;50.730;-1.932;2023-03-25T07:43:38;100022.90;;;8.83;100.00
49645;BME280;36494;50.730;-1.932;2023-03-25T07:46:03;100026.17;;;8.88;100.00
49645;BME280;36494;50.730;-1.932;2023-03-25T07:48:28;100032.92;;;8.92;100.00
49645;BME280;36494;50.730;-1.932;2023-03-25T07:50:54;100034.50;;;8.99;100.00
49645;BME280;36494;50.730;-1.932;2023-03-25T07:53:19;100041.03;;;9.03;100.00
49645;BME280;36494;50.730;-1.932;2023-03-25T07:55:44;100056.92;;;9.09;100.00
49645;BME280;36494;50.730;-1.932;2023-03-25T07:58:10;100050.75;;;9.16;100.00
49645;BME280;36494;50.730;-1.932;2023-03-25T08:00:35;100056.99;;;9.21;100.00
49645;BME280;36494;50.730;-1.932;2023-03-25T08:03:00;100054.85;;;9.26;100.00
49645;BME280;36494;50.730;-1.932;2023-03-25T08:05:25;100065.94;;;9.32;100.00
49645;BME280;36494;50.730;-1.932;2023-03-25T08:07:51;100063.85;;;9.37;100.00
49645;BME280;36494;50.730;-1.932;2023-03-25T08:10:17;100068.65;;;9.44;100.00
49645;BME280;36494;50.730;-1.932;2023-03-25T08:12:42;100069.94;;;9.49;100.00
49645;BME280;36494;50.730;-1.932;2023-03-25T08:15:08;100072.84;;;9.52;100.00
49645;BME280;36494;50.730;-1.932;2023-03-25T08:17:33;100075.82;;;9.57;100.00
49645;BME280;36494;50.730;-1.932;2023-03-25T08:19:58;100074.62;;;9.63;100.00
49645;BME280;36494;50.730;-1.932;2023-03-25T08:22:23;100083.92;;;9.74;100.00
49645;BME280;36494;50.730;-1.932;2023-03-25T08:24:49;100087.64;;;9.79;100.00
49645;BME280;36494;50.730;-1.932;2023-03-25T08:27:14;100086.81;;;9.81;100.00
49645;BME280;36494;50.730;-1.932;2023-03-25T08:29:40;100084.02;;;9.84;100.00
49645;BME280;36494;50.730;-1.932;2023-03-25T08:32:05;100087.81;;;9.97;100.00
49645;BME280;36494;50.730;-1.932;2023-03-25T08:34:30;100096.30;;;9.97;100.00
49645;BME280;36494;50.730;-1.932;2023-03-25T08:36:55;100093.78;;;10.09;100.00
49645;BME280;36494;50.730;-1.932;2023-03-25T08:39:21;100095.26;;;10.15;100.00
49645;BME280;36494;50.730;-1.932;2023-03-25T08:41:46;100095.28;;;10.14;100.00
49645;BME280;36494;50.730;-1.932;2023-03-25T08:44:12;100109.55;;;10.20;100.00
49645;BME280;36494;50.730;-1.932;2023-03-25T08:46:38;100114.11;;;10.23;100.00
49645;BME280;36494;50.730;-1.932;2023-03-25T08:49:03;100120.49;;;10.29;100.00
49645;BME280;36494;50.730;-1.932;2023-03-25T08:51:28;100114.63;;;10.27;100.00
49645;BME280;36494;50.730;-1.932;2023-03-25T08:53:53;100118.70;;;10.31;100.00
49645;BME280;36494;50.730;-1.932;2023-03-25T08:56:18;100130.70;;;10.34;100.00
49645;BME280;36494;50.730;-1.932;2023-03-25T08:58:44;100121.69;;;10.36;100.00
49645;BME280;36494;50.730;-1.932;2023-03-25T09:01:09;100122.04;;;10.38;100.00
49645;BME280;36494;50.730;-1.932;2023-03-25T09:03:34;100125.20;;;10.40;100.00
49645;BME280;36494;50.730;-1.932;2023-03-25T09:06:03;100126.76;;;10.48;100.00
49645;BME280;36494;50.730;-1.932;2023-03-25T09:08:26;100132.85;;;10.54;100.00
49645;BME280;36494;50.730;-1.932;2023-03-25T09:10:53;100133.12;;;10.56;100.00
49645;BME280;36494;50.730;-1.932;2023-03-25T09:13:17;100136.42;;;10.67;100.00
49645;BME280;36494;50.730;-1.932;2023-03-25T09:15:42;100141.74;;;10.69;100.00
49645;BME280;36494;50.730;-1.932;2023-03-25T09:18:07;100138.38;;;10.69;100.00
49645;BME280;36494;50.730;-1.932;2023-03-25T09:20:33;100137.63;;;10.74;100.00
49645;BME280;36494;50.730;-1.932;2023-03-25T09:22:58;100134.56;;;10.73;100.00
49645;BME280;36494;50.730;-1.932;2023-03-25T09:25:23;100134.83;;;10.85;100.00
49645;BME280;36494;50.730;-1.932;2023-03-25T09:27:49;100133.24;;;10.91;100.00
49645;BME280;36494;50.730;-1.932;2023-03-25T09:30:14;100143.92;;;10.95;100.00
49645;BME280;36494;50.730;-1.932;2023-03-25T09:32:39;100151.62;;;10.94;100.00
49645;BME280;36494;50.730;-1.932;2023-03-25T09:35:05;100152.38;;;10.99;100.00
49645;BME280;36494;50.730;-1.932;2023-03-25T09:37:30;100161.71;;;11.00;100.00
49645;BME280;36494;50.730;-1.932;2023-03-25T09:39:55;100159.31;;;11.08;100.00
49645;BME280;36494;50.730;-1.932;2023-03-25T09:42:33;100158.43;;;11.11;100.00
49645;BME280;36494;50.730;-1.932;2023-03-25T09:44:54;100166.18;;;11.12;100.00
49645;BME280;36494;50.730;-1.932;2023-03-25T09:47:12;100167.33;;;11.23;100.00
49645;BME280;36494;50.730;-1.932;2023-03-25T09:49:39;100169.46;;;11.20;100.00
49645;BME280;36494;50.730;-1.932;2023-03-25T09:52:02;100178.51;;;11.23;100.00
49645;BME280;36494;50.730;-1.932;2023-03-25T09:54:30;100182.11;;;11.36;100.00
49645;BME280;36494;50.730;-1.932;2023-03-25T09:56:55;100179.83;;;11.34;100.00
49645;BME280;36494;50.730;-1.932;2023-03-25T09:59:19;100186.34;;;11.36;100.00
49645;BME280;36494;50.730;-1.932;2023-03-25T10:01:50;100189.72;;;11.40;100.00
49645;BME280;36494;50.730;-1.932;2023-03-25T10:06:41;100183.23;;;11.58;100.00
49645;BME280;36494;50.730;-1.932;2023-03-25T10:09:08;100180.68;;;11.61;100.00
49645;BME280;36494;50.730;-1.932;2023-03-25T10:11:31;100184.73;;;11.73;100.00
49645;BME280;36494;50.730;-1.932;2023-03-25T10:13:53;100191.64;;;11.76;100.00
49645;BME280;36494;50.730;-1.932;2023-03-25T10:16:23;100202.60;;;11.85;100.00
49645;BME280;36494;50.730;-1.932;2023-03-25T10:18:47;100200.02;;;11.91;100.00
49645;BME280;36494;50.730;-1.932;2023-03-25T10:21:10;100196.24;;;11.99;100.00
49645;BME280;36494;50.730;-1.932;2023-03-25T10:23:34;100196.58;;;12.18;100.00
49645;BME280;36494;50.730;-1.932;2023-03-25T10:25:59;100206.45;;;12.29;100.00
49645;BME280;36494;50.730;-1.932;2023-03-25T10:28:27;100204.30;;;12.31;100.00
49645;BME280;36494;50.730;-1.932;2023-03-25T10:30:49;100215.99;;;12.35;100.00
49645;BME280;36494;50.730;-1.932;2023-03-25T10:33:20;100220.68;;;12.49;100.00
49645;BME280;36494;50.730;-1.932;2023-03-25T10:35:42;100225.69;;;12.48;100.00
49645;BME280;36494;50.730;-1.932;2023-03-25T10:38:08;100235.20;;;12.74;100.00
49645;BME280;36494;50.730;-1.932;2023-03-25T10:40:32;100231.94;;;12.94;100.00
49645;BME280;36494;50.730;-1.932;2023-03-25T10:43:02;100234.96;;;13.11;100.00
49645;BME280;36494;50.730;-1.932;2023-03-25T10:45:22;100232.79;;;13.31;100.00
49645;BME280;36494;50.730;-1.932;2023-03-25T10:47:46;100233.17;;;13.57;100.00
49645;BME280;36494;50.730;-1.932;2023-03-25T10:50:14;100248.31;;;13.61;100.00
49645;BME280;36494;50.730;-1.932;2023-03-25T10:52:36;100237.65;;;13.34;100.00
49645;BME280;36494;50.730;-1.932;2023-03-25T10:55:02;100245.71;;;13.22;100.00
49645;BME280;36494;50.730;-1.932;2023-03-25T10:57:28;100244.17;;;13.58;100.00
49645;BME280;36494;50.730;-1.932;2023-03-25T10:59:59;100242.68;;;13.66;100.00
49645;BME280;36494;50.730;-1.932;2023-03-25T11:02:19;100240.91;;;13.56;100.00
49645;BME280;36494;50.730;-1.932;2023-03-25T11:04:43;100240.04;;;13.39;100.00
49645;BME280;36494;50.730;-1.932;2023-03-25T11:07:15;100237.40;;;13.38;100.00
49645;BME280;36494;50.730;-1.932;2023-03-25T11:09:33;100235.38;;;13.59;100.00
49645;BME280;36494;50.730;-1.932;2023-03-25T11:12:00;100236.25;;;13.74;100.00
49645;BME280;36494;50.730;-1.932;2023-03-25T11:14:26;100231.36;;;13.68;100.00
49645;BME280;36494;50.730;-1.932;2023-03-25T11:16:54;100235.83;;;13.79;100.00
49645;BME280;36494;50.730;-1.932;2023-03-25T11:19:19;100239.73;;;13.88;100.00
49645;BME280;36494;50.730;-1.932;2023-03-25T11:21:45;100234.30;;;14.12;100.00
49645;BME280;36494;50.730;-1.932;2023-03-25T11:24:06;100239.45;;;14.45;100.00
49645;BME280;36494;50.730;-1.932;2023-03-25T11:26:36;100244.37;;;14.45;100.00
49645;BME280;36494;50.730;-1.932;2023-03-25T11:29:00;100239.95;;;14.49;100.00
49645;BME280;36494;50.730;-1.932;2023-03-25T11:31:23;100254.18;;;14.72;100.00
49645;BME280;36494;50.730;-1.932;2023-03-25T11:36:21;100238.44;;;14.64;100.00
49645;BME280;36494;50.730;-1.932;2023-03-25T11:38:38;100243.76;;;14.79;100.00
49645;BME280;36494;50.730;-1.932;2023-03-25T11:41:04;100244.81;;;14.35;100.00
49645;BME280;36494;50.730;-1.932;2023-03-25T11:43:32;100238.30;;;14.52;100.00
49645;BME280;36494;50.730;-1.932;2023-03-25T11:45:54;100243.16;;;14.44;100.00
49645;BME280;36494;50.730;-1.932;2023-03-25T11:48:21;100236.47;;;14.43;100.00
49645;BME280;36494;50.730;-1.932;2023-03-25T11:50:46;100242.28;;;14.61;100.00
49645;BME280;36494;50.730;-1.932;2023-03-25T11:53:14;100250.61;;;14.37;100.00
49645;BME280;36494;50.730;-1.932;2023-03-25T11:55:43;100248.42;;;14.28;100.00
49645;BME280;36494;50.730;-1.932;2023-03-25T11:58:01;100250.16;;;14.16;100.00
49645;BME280;36494;50.730;-1.932;2023-03-25T12:00:31;100252.53;;;14.27;100.00
49645;BME280;36494;50.730;-1.932;2023-03-25T12:02:58;100251.03;;;13.89;100.00
49645;BME280;36494;50.730;-1.932;2023-03-25T12:05:16;100251.90;;;13.77;100.00
49645;BME280;36494;50.730;-1.932;2023-03-25T12:07:44;100249.31;;;13.89;100.00
49645;BME280;36494;50.730;-1.932;2023-03-25T12:10:15;100260.70;;;14.01;100.00
49645;BME280;36494;50.730;-1.932;2023-03-25T12:12:41;100260.80;;;13.75;100.00
49645;BME280;36494;50.730;-1.932;2023-03-25T12:15:06;100261.13;;;13.64;100.00
49645;BME280;36494;50.730;-1.932;2023-03-25T12:17:33;100268.08;;;13.45;100.00
49645;BME280;36494;50.730;-1.932;2023-03-25T12:19:53;100263.01;;;13.45;100.00
49645;BME280;36494;50.730;-1.932;2023-03-25T12:22:24;100265.09;;;13.47;100.00
49645;BME280;36494;50.730;-1.932;2023-03-25T12:24:55;100263.87;;;13.35;100.00
49645;BME280;36494;50.730;-1.932;2023-03-25T12:27:13;100262.14;;;13.19;100.00
49645;BME280;36494;50.730;-1.932;2023-03-25T12:29:36;100270.69;;;13.25;100.00
49645;BME280;36494;50.730;-1.932;2023-03-25T12:32:07;100264.93;;;13.28;100.00
49645;BME280;36494;50.730;-1.932;2023-03-25T12:34:28;100266.34;;;13.37;100.00
49645;BME280;36494;50.730;-1.932;2023-03-25T12:36:53;100268.93;;;13.44;100.00
49645;BME280;36494;50.730;-1.932;2023-03-25T12:39:22;100269.20;;;13.50;100.00
49645;BME280;36494;50.730;-1.932;2023-03-25T12:41:40;100275.58;;;13.74;100.00
49645;BME280;36494;50.730;-1.932;2023-03-25T12:44:05;100270.39;;;13.63;100.00